sensor_id;sensor_type;location;lat;lon;timestamp;temperature;humidity
21312;DHT22;18076;52.154;10.570;2022-12-18T00:01:23;-8.00;99.90
21312;DHT22;18076;52.154;10.570;2022-12-18T00:03:49;-8.00;99.90
21312;DHT22;18076;52.154;10.570;2022-12-18T00:06:15;-7.90;99.90
21312;DHT22;18076;52.154;10.570;2022-12-18T00:08:41;-7.80;99.90
21312;DHT22;18076;52.154;10.570;2022-12-18T00:11:07;-7.70;99.90
21312;DHT22;18076;52.154;10.570;2022-12-18T00:13:33;-7.80;99.90
21312;DHT22;18076;52.154;10.570;2022-12-18T00:16:18;-7.90;99.90
21312;DHT22;18076;52.154;10.570;2022-12-18T00:18:45;-7.90;99.90
21312;DHT22;18076;52.154;10.570;2022-12-18T00:21:11;-8.00;99.90
21312;DHT22;18076;52.154;10.570;2022-12-18T00:23:38;-8.00;99.90
21312;DHT22;18076;52.154;10.570;2022-12-18T00:26:05;-7.90;99.90
21312;DHT22;18076;52.154;10.570;2022-12-18T00:28:31;-7.90;99.90
21312;DHT22;18076;52.154;10.570;2022-12-18T00:31:04;-8.00;99.90
21312;DHT22;18076;52.154;10.570;2022-12-18T00:33:30;-8.10;99.90
21312;DHT22;18076;52.154;10.570;2022-12-18T00:36:00;-8.10;99.90
21312;DHT22;18076;52.154;10.570;2022-12-18T00:38:25;-8.00;99.90
21312;DHT22;18076;52.154;10.570;2022-12-18T00:40:51;-8.00;99.90
21312;DHT22;18076;52.154;10.570;2022-12-18T00:43:16;-8.00;99.90
21312;DHT22;18076;52.154;10.570;2022-12-18T00:45:42;-8.00;99.90
21312;DHT22;18076;52.154;10.570;2022-12-18T00:48:07;-7.90;99.90
21312;DHT22;18076;52.154;10.570;2022-12-18T00:50:33;-7.90;99.90
21312;DHT22;18076;52.154;10.570;2022-12-18T00:52:58;-8.00;99.90
21312;DHT22;18076;52.154;10.570;2022-12-18T00:55:24;-8.00;99.90
21312;DHT22;18076;52.154;10.570;2022-12-18T00:57:50;-8.00;99.90
21312;DHT22;18076;52.154;10.570;2022-12-18T01:00:16;-8.00;99.90
21312;DHT22;18076;52.154;10.570;2022-12-18T01:02:42;-8.00;99.90
21312;DHT22;18076;52.154;10.570;2022-12-18T01:05:08;-8.10;99.90
21312;DHT22;18076;52.154;10.570;2022-12-18T01:07:33;-8.10;99.90
21312;DHT22;18076;52.154;10.570;2022-12-18T01:09:59;-8.20;99.90
21312;DHT22;18076;52.154;10.570;2022-12-18T01:12:24;-8.10;99.90
21312;DHT22;18076;52.154;10.570;2022-12-18T01:14:50;-8.20;99.90
21312;DHT22;18076;52.154;10.570;2022-12-18T01:17:15;-8.20;99.90
21312;DHT22;18076;52.154;10.570;2022-12-18T01:19:41;-8.20;99.90
21312;DHT22;18076;52.154;10.570;2022-12-18T01:22:07;-8.10;99.90
21312;DHT22;18076;52.154;10.570;2022-12-18T01:24:32;-8.10;99.90
21312;DHT22;18076;52.154;10.570;2022-12-18T01:26:58;-8.10;99.90
21312;DHT22;18076;52.154;10.570;2022-12-18T01:29:23;-8.10;99.90
21312;DHT22;18076;52.154;10.570;2022-12-18T01:31:49;-8.00;99.90
21312;DHT22;18076;52.154;10.570;2022-12-18T01:34:14;-8.00;99.90
21312;DHT22;18076;52.154;10.570;2022-12-18T01:36:40;-8.00;99.90
21312;DHT22;18076;52.154;10.570;2022-12-18T01:39:06;-8.00;99.90
21312;DHT22;18076;52.154;10.570;2022-12-18T01:41:33;-7.90;99.90
21312;DHT22;18076;52.154;10.570;2022-12-18T01:47:01;-7.90;99.90
21312;DHT22;18076;52.154;10.570;2022-12-18T01:49:27;-7.90;99.90
21312;DHT22;18076;52.154;10.570;2022-12-18T01:51:52;-7.90;99.90
21312;DHT22;18076;52.154;10.570;2022-12-18T01:54:17;-7.90;99.90
21312;DHT22;18076;52.154;10.570;2022-12-18T01:56:43;-7.90;99.90
21312;DHT22;18076;52.154;10.570;2022-12-18T01:59:08;-7.90;99.90
21312;DHT22;18076;52.154;10.570;2022-12-18T02:01:35;-7.90;99.90
21312;DHT22;18076;52.154;10.570;2022-12-18T02:04:22;-8.00;99.90
21312;DHT22;18076;52.154;10.570;2022-12-18T02:06:49;-8.10;99.90
21312;DHT22;18076;52.154;10.570;2022-12-18T02:09:19;-8.10;99.90
21312;DHT22;18076;52.154;10.570;2022-12-18T02:12:05;-8.10;99.90
21312;DHT22;18076;52.154;10.570;2022-12-18T02:17:21;-8.00;99.90
21312;DHT22;18076;52.154;10.570;2022-12-18T02:25:28;-8.00;99.90
21312;DHT22;18076;52.154;10.570;2022-12-18T02:27:59;-8.00;99.90
21312;DHT22;18076;52.154;10.570;2022-12-18T02:30:26;-8.10;99.90
21312;DHT22;18076;52.154;10.570;2022-12-18T02:32:52;-8.20;99.90
21312;DHT22;18076;52.154;10.570;2022-12-18T02:35:23;-8.40;99.90
21312;DHT22;18076;52.154;10.570;2022-12-18T02:37:49;-8.40;99.90
21312;DHT22;18076;52.154;10.570;2022-12-18T02:40:15;-8.50;99.90
21312;DHT22;18076;52.154;10.570;2022-12-18T02:42:42;-8.50;99.90
21312;DHT22;18076;52.154;10.570;2022-12-18T02:45:08;-8.40;99.90
21312;DHT22;18076;52.154;10.570;2022-12-18T02:47:35;-8.50;99.90
21312;DHT22;18076;52.154;10.570;2022-12-18T02:50:06;-8.50;99.90
21312;DHT22;18076;52.154;10.570;2022-12-18T02:57:55;-8.50;99.90
21312;DHT22;18076;52.154;10.570;2022-12-18T03:00:23;-8.40;99.90
21312;DHT22;18076;52.154;10.570;2022-12-18T03:02:59;-8.40;99.90
21312;DHT22;18076;52.154;10.570;2022-12-18T03:05:36;-8.40;99.90
21312;DHT22;18076;52.154;10.570;2022-12-18T03:08:08;-8.40;99.90
21312;DHT22;18076;52.154;10.570;2022-12-18T03:10:38;-8.40;99.90
21312;DHT22;18076;52.154;10.570;2022-12-18T03:13:06;-8.50;99.90
21312;DHT22;18076;52.154;10.570;2022-12-18T03:15:37;-8.40;99.90
21312;DHT22;18076;52.154;10.570;2022-12-18T03:18:14;-8.50;99.90
21312;DHT22;18076;52.154;10.570;2022-12-18T03:20:41;-8.40;99.90
21312;DHT22;18076;52.154;10.570;2022-12-18T03:23:09;-8.50;99.90
21312;DHT22;18076;52.154;10.570;2022-12-18T03:25:37;-8.50;99.90
21312;DHT22;18076;52.154;10.570;2022-12-18T03:28:04;-8.60;99.90
21312;DHT22;18076;52.154;10.570;2022-12-18T03:30:33;-8.70;99.90
21312;DHT22;18076;52.154;10.570;2022-12-18T03:33:04;-8.70;99.90
21312;DHT22;18076;52.154;10.570;2022-12-18T03:35:33;-8.70;99.90
21312;DHT22;18076;52.154;10.570;2022-12-18T03:38:00;-8.70;99.90
21312;DHT22;18076;52.154;10.570;2022-12-18T03:41:15;-8.70;99.90
21312;DHT22;18076;52.154;10.570;2022-12-18T03:43:16;-8.60;99.90
21312;DHT22;18076;52.154;10.570;2022-12-18T03:45:48;-8.60;99.90
21312;DHT22;18076;52.154;10.570;2022-12-18T03:48:21;-8.70;99.90
21312;DHT22;18076;52.154;10.570;2022-12-18T03:50:51;-8.80;99.90
21312;DHT22;18076;52.154;10.570;2022-12-18T03:55:46;-8.80;99.90
21312;DHT22;18076;52.154;10.570;2022-12-18T03:58:13;-8.90;99.90
21312;DHT22;18076;52.154;10.570;2022-12-18T04:00:40;-8.90;99.90
21312;DHT22;18076;52.154;10.570;2022-12-18T04:03:06;-8.90;99.90
21312;DHT22;18076;52.154;10.570;2022-12-18T04:05:33;-8.90;99.90
21312;DHT22;18076;52.154;10.570;2022-12-18T04:07:59;-8.80;99.90
21312;DHT22;18076;52.154;10.570;2022-12-18T04:10:26;-8.80;99.90
21312;DHT22;18076;52.154;10.570;2022-12-18T04:12:55;-8.80;99.90
21312;DHT22;18076;52.154;10.570;2022-12-18T04:15:20;-8.80;99.90
21312;DHT22;18076;52.154;10.570;2022-12-18T04:17:47;-8.80;99.90
21312;DHT22;18076;52.154;10.570;2022-12-18T04:20:13;-8.80;99.90
21312;DHT22;18076;52.154;10.570;2022-12-18T04:22:38;-8.90;99.90
21312;DHT22;18076;52.154;10.570;2022-12-18T04:25:07;-8.90;99.90
21312;DHT22;18076;52.154;10.570;2022-12-18T04:27:33;-8.90;99.90
21312;DHT22;18076;52.154;10.570;2022-12-18T04:29:59;-8.80;99.90
21312;DHT22;18076;52.154;10.570;2022-12-18T04:32:24;-8.80;99.90
21312;DHT22;18076;52.154;10.570;2022-12-18T04:34:50;-8.80;99.90
21312;DHT22;18076;52.154;10.570;2022-12-18T04:37:15;-8.80;99.90
21312;DHT22;18076;52.154;10.570;2022-12-18T04:39:41;-8.80;99.90
21312;DHT22;18076;52.154;10.570;2022-12-18T04:42:06;-8.70;99.90
21312;DHT22;18076;52.154;10.570;2022-12-18T04:44:32;-8.70;99.90
21312;DHT22;18076;52.154;10.570;2022-12-18T04:46:57;-8.70;99.90
21312;DHT22;18076;52.154;10.570;2022-12-18T04:49:23;-8.80;99.90
21312;DHT22;18076;52.154;10.570;2022-12-18T04:51:48;-8.80;99.90
21312;DHT22;18076;52.154;10.570;2022-12-18T04:54:14;-8.80;99.90
21312;DHT22;18076;52.154;10.570;2022-12-18T04:56:39;-8.70;99.90
21312;DHT22;18076;52.154;10.570;2022-12-18T04:59:05;-8.70;99.90
21312;DHT22;18076;52.154;10.570;2022-12-18T05:01:31;-8.70;99.90
21312;DHT22;18076;52.154;10.570;2022-12-18T05:03:56;-8.80;99.90
21312;DHT22;18076;52.154;10.570;2022-12-18T05:06:22;-8.80;99.90
21312;DHT22;18076;52.154;10.570;2022-12-18T05:08:47;-8.80;99.90
21312;DHT22;18076;52.154;10.570;2022-12-18T05:11:13;-8.90;99.90
21312;DHT22;18076;52.154;10.570;2022-12-18T05:13:41;-8.90;99.90
21312;DHT22;18076;52.154;10.570;2022-12-18T05:16:07;-8.90;99.90
21312;DHT22;18076;52.154;10.570;2022-12-18T05:18:32;-8.90;99.90
21312;DHT22;18076;52.154;10.570;2022-12-18T05:20:58;-9.00;99.90
21312;DHT22;18076;52.154;10.570;2022-12-18T05:23:24;-9.00;99.90
21312;DHT22;18076;52.154;10.570;2022-12-18T05:26:00;-9.00;99.90
21312;DHT22;18076;52.154;10.570;2022-12-18T05:28:26;-9.10;99.90
21312;DHT22;18076;52.154;10.570;2022-12-18T05:30:53;-9.20;99.90
21312;DHT22;18076;52.154;10.570;2022-12-18T05:33:19;-9.20;99.90
21312;DHT22;18076;52.154;10.570;2022-12-18T05:35:49;-9.10;99.90
21312;DHT22;18076;52.154;10.570;2022-12-18T05:38:15;-9.10;99.90
21312;DHT22;18076;52.154;10.570;2022-12-18T05:40:43;-9.10;99.90
21312;DHT22;18076;52.154;10.570;2022-12-18T05:43:09;-9.10;99.90
21312;DHT22;18076;52.154;10.570;2022-12-18T05:45:38;-9.10;99.90
21312;DHT22;18076;52.154;10.570;2022-12-18T05:48:04;-9.00;99.90
21312;DHT22;18076;52.154;10.570;2022-12-18T05:50:29;-9.00;99.90
21312;DHT22;18076;52.154;10.570;2022-12-18T05:52:55;-9.00;99.90
21312;DHT22;18076;52.154;10.570;2022-12-18T05:55:20;-9.00;99.90
21312;DHT22;18076;52.154;10.570;2022-12-18T05:57:46;-9.00;99.90
21312;DHT22;18076;52.154;10.570;2022-12-18T06:00:12;-9.10;99.90
21312;DHT22;18076;52.154;10.570;2022-12-18T06:02:37;-9.20;99.90
21312;DHT22;18076;52.154;10.570;2022-12-18T06:05:03;-9.30;99.90
21312;DHT22;18076;52.154;10.570;2022-12-18T06:07:28;-9.30;99.90
21312;DHT22;18076;52.154;10.570;2022-12-18T06:09:54;-9.30;99.90
21312;DHT22;18076;52.154;10.570;2022-12-18T06:12:19;-9.30;99.90
21312;DHT22;18076;52.154;10.570;2022-12-18T06:14:45;-9.40;99.90
21312;DHT22;18076;52.154;10.570;2022-12-18T06:17:10;-9.30;99.90
21312;DHT22;18076;52.154;10.570;2022-12-18T06:19:36;-9.30;99.90
21312;DHT22;18076;52.154;10.570;2022-12-18T06:22:01;-9.30;99.90
21312;DHT22;18076;52.154;10.570;2022-12-18T06:24:27;-9.30;99.90
21312;DHT22;18076;52.154;10.570;2022-12-18T06:26:52;-9.30;99.90
21312;DHT22;18076;52.154;10.570;2022-12-18T06:29:18;-9.30;99.90
21312;DHT22;18076;52.154;10.570;2022-12-18T06:31:43;-9.30;99.90
21312;DHT22;18076;52.154;10.570;2022-12-18T06:34:09;-9.30;99.90
21312;DHT22;18076;52.154;10.570;2022-12-18T06:36:34;-9.30;99.90
21312;DHT22;18076;52.154;10.570;2022-12-18T06:39:00;-9.20;99.90
21312;DHT22;18076;52.154;10.570;2022-12-18T06:41:25;-9.20;99.90
21312;DHT22;18076;52.154;10.570;2022-12-18T06:43:51;-9.20;99.90
21312;DHT22;18076;52.154;10.570;2022-12-18T06:46:17;-9.30;99.90
21312;DHT22;18076;52.154;10.570;2022-12-18T06:48:42;-9.20;99.90
21312;DHT22;18076;52.154;10.570;2022-12-18T06:51:08;-9.20;99.90
21312;DHT22;18076;52.154;10.570;2022-12-18T06:53:33;-9.20;99.90
21312;DHT22;18076;52.154;10.570;2022-12-18T06:56:03;-9.20;99.90
21312;DHT22;18076;52.154;10.570;2022-12-18T06:58:29;-9.10;99.90
21312;DHT22;18076;52.154;10.570;2022-12-18T07:00:59;-9.10;99.90
21312;DHT22;18076;52.154;10.570;2022-12-18T07:03:24;-9.10;99.90
21312;DHT22;18076;52.154;10.570;2022-12-18T07:05:50;-9.20;99.90
21312;DHT22;18076;52.154;10.570;2022-12-18T07:08:15;-9.20;99.90
21312;DHT22;18076;52.154;10.570;2022-12-18T07:10:42;-9.30;99.90
21312;DHT22;18076;52.154;10.570;2022-12-18T07:13:07;-9.30;99.90
21312;DHT22;18076;52.154;10.570;2022-12-18T07:15:33;-9.40;99.90
21312;DHT22;18076;52.154;10.570;2022-12-18T07:17:58;-9.30;99.90
21312;DHT22;18076;52.154;10.570;2022-12-18T07:20:24;-9.30;99.90
21312;DHT22;18076;52.154;10.570;2022-12-18T07:22:50;-9.40;99.90
21312;DHT22;18076;52.154;10.570;2022-12-18T07:25:15;-9.30;99.90
21312;DHT22;18076;52.154;10.570;2022-12-18T07:27:41;-9.40;99.90
21312;DHT22;18076;52.154;10.570;2022-12-18T07:30:06;-9.40;99.90
21312;DHT22;18076;52.154;10.570;2022-12-18T07:32:32;-9.30;99.90
21312;DHT22;18076;52.154;10.570;2022-12-18T07:34:57;-9.30;99.90
21312;DHT22;18076;52.154;10.570;2022-12-18T07:37:23;-9.40;99.90
21312;DHT22;18076;52.154;10.570;2022-12-18T07:39:48;-9.30;99.90
21312;DHT22;18076;52.154;10.570;2022-12-18T07:42:14;-9.30;99.90
21312;DHT22;18076;52.154;10.570;2022-12-18T07:44:59;-9.20;99.90
21312;DHT22;18076;52.154;10.570;2022-12-18T07:47:25;-9.20;99.90
21312;DHT22;18076;52.154;10.570;2022-12-18T07:49:50;-9.10;99.90
21312;DHT22;18076;52.154;10.570;2022-12-18T07:52:16;-9.00;99.90
21312;DHT22;18076;52.154;10.570;2022-12-18T07:54:41;-9.00;99.90
21312;DHT22;18076;52.154;10.570;2022-12-18T07:57:07;-8.80;99.90
21312;DHT22;18076;52.154;10.570;2022-12-18T07:59:34;-8.80;99.90
21312;DHT22;18076;52.154;10.570;2022-12-18T08:01:59;-8.70;99.90
21312;DHT22;18076;52.154;10.570;2022-12-18T08:04:25;-8.70;99.90
21312;DHT22;18076;52.154;10.570;2022-12-18T08:06:50;-8.70;99.90
21312;DHT22;18076;52.154;10.570;2022-12-18T08:09:16;-8.60;99.90
21312;DHT22;18076;52.154;10.570;2022-12-18T08:11:42;-8.50;99.90
21312;DHT22;18076;52.154;10.570;2022-12-18T08:14:07;-8.50;99.90
21312;DHT22;18076;52.154;10.570;2022-12-18T08:16:33;-8.50;99.90
21312;DHT22;18076;52.154;10.570;2022-12-18T08:18:59;-8.50;99.90
21312;DHT22;18076;52.154;10.570;2022-12-18T08:21:26;-8.40;99.90
21312;DHT22;18076;52.154;10.570;2022-12-18T08:23:52;-8.40;99.90
21312;DHT22;18076;52.154;10.570;2022-12-18T08:26:18;-8.30;99.90
21312;DHT22;18076;52.154;10.570;2022-12-18T08:28:44;-8.30;99.90
21312;DHT22;18076;52.154;10.570;2022-12-18T08:31:10;-8.40;99.90
21312;DHT22;18076;52.154;10.570;2022-12-18T08:33:35;-8.30;99.90
21312;DHT22;18076;52.154;10.570;2022-12-18T08:36:01;-7.90;99.90
21312;DHT22;18076;52.154;10.570;2022-12-18T08:38:27;-7.10;99.90
21312;DHT22;18076;52.154;10.570;2022-12-18T08:40:59;-5.90;99.90
21312;DHT22;18076;52.154;10.570;2022-12-18T08:43:25;-4.60;99.90
21312;DHT22;18076;52.154;10.570;2022-12-18T08:46:10;-3.40;99.90
21312;DHT22;18076;52.154;10.570;2022-12-18T08:48:35;-2.80;99.90
21312;DHT22;18076;52.154;10.570;2022-12-18T08:51:01;-2.20;99.90
21312;DHT22;18076;52.154;10.570;2022-12-18T08:53:26;-1.50;99.90
21312;DHT22;18076;52.154;10.570;2022-12-18T08:55:52;-0.80;99.90
21312;DHT22;18076;52.154;10.570;2022-12-18T08:58:21;-0.40;99.90
21312;DHT22;18076;52.154;10.570;2022-12-18T09:00:49;-0.50;99.90
21312;DHT22;18076;52.154;10.570;2022-12-18T09:03:15;0.00;99.90
21312;DHT22;18076;52.154;10.570;2022-12-18T09:05:41;0.20;99.90
21312;DHT22;18076;52.154;10.570;2022-12-18T09:08:06;0.20;99.90
21312;DHT22;18076;52.154;10.570;2022-12-18T09:10:32;0.50;99.90
21312;DHT22;18076;52.154;10.570;2022-12-18T09:12:57;1.10;99.90
21312;DHT22;18076;52.154;10.570;2022-12-18T09:15:23;1.60;99.90
21312;DHT22;18076;52.154;10.570;2022-12-18T09:17:49;2.30;99.90
21312;DHT22;18076;52.154;10.570;2022-12-18T09:20:15;2.90;99.90
21312;DHT22;18076;52.154;10.570;2022-12-18T09:22:41;3.60;99.90
21312;DHT22;18076;52.154;10.570;2022-12-18T09:25:07;4.00;99.90
21312;DHT22;18076;52.154;10.570;2022-12-18T09:27:33;4.00;99.90
21312;DHT22;18076;52.154;10.570;2022-12-18T09:29:59;3.80;99.90
21312;DHT22;18076;52.154;10.570;2022-12-18T09:32:24;4.00;99.90
21312;DHT22;18076;52.154;10.570;2022-12-18T09:34:50;3.50;99.90
21312;DHT22;18076;52.154;10.570;2022-12-18T09:37:15;3.80;99.90
21312;DHT22;18076;52.154;10.570;2022-12-18T09:39:41;4.00;99.90
21312;DHT22;18076;52.154;10.570;2022-12-18T09:42:08;3.20;99.90
21312;DHT22;18076;52.154;10.570;2022-12-18T09:44:36;3.00;99.90
21312;DHT22;18076;52.154;10.570;2022-12-18T09:47:05;2.90;99.90
21312;DHT22;18076;52.154;10.570;2022-12-18T09:49:34;2.30;99.90
21312;DHT22;18076;52.154;10.570;2022-12-18T09:54:30;2.90;99.90
21312;DHT22;18076;52.154;10.570;2022-12-18T09:56:56;2.80;99.90
21312;DHT22;18076;52.154;10.570;2022-12-18T09:59:26;2.80;99.90
21312;DHT22;18076;52.154;10.570;2022-12-18T10:01:55;3.30;99.90
21312;DHT22;18076;52.154;10.570;2022-12-18T10:04:20;3.20;99.90
21312;DHT22;18076;52.154;10.570;2022-12-18T10:06:52;2.80;99.90
21312;DHT22;18076;52.154;10.570;2022-12-18T10:09:33;3.00;99.90
21312;DHT22;18076;52.154;10.570;2022-12-18T10:20:32;2.90;99.90
21312;DHT22;18076;52.154;10.570;2022-12-18T10:28:13;-0.10;99.90
21312;DHT22;18076;52.154;10.570;2022-12-18T10:30:39;-0.10;99.90
21312;DHT22;18076;52.154;10.570;2022-12-18T10:33:05;-0.10;99.90
21312;DHT22;18076;52.154;10.570;2022-12-18T10:35:31;-0.10;99.90
21312;DHT22;18076;52.154;10.570;2022-12-18T10:38:07;-0.40;99.90
21312;DHT22;18076;52.154;10.570;2022-12-18T10:40:50;-0.50;99.90
21312;DHT22;18076;52.154;10.570;2022-12-18T10:43:16;-0.60;99.90
21312;DHT22;18076;52.154;10.570;2022-12-18T10:45:49;-0.80;99.90
21312;DHT22;18076;52.154;10.570;2022-12-18T10:48:22;-0.70;99.90
21312;DHT22;18076;52.154;10.570;2022-12-18T10:50:49;-0.90;99.90
21312;DHT22;18076;52.154;10.570;2022-12-18T10:53:21;-0.90;99.90
21312;DHT22;18076;52.154;10.570;2022-12-18T10:55:47;-1.00;99.90
21312;DHT22;18076;52.154;10.570;2022-12-18T10:58:20;-0.90;99.90
21312;DHT22;18076;52.154;10.570;2022-12-18T11:03:33;-0.40;99.90
21312;DHT22;18076;52.154;10.570;2022-12-18T11:06:05;-0.10;99.90
21312;DHT22;18076;52.154;10.570;2022-12-18T11:08:31;0.00;99.90
21312;DHT22;18076;52.154;10.570;2022-12-18T11:10:56;0.10;99.90
21312;DHT22;18076;52.154;10.570;2022-12-18T11:13:23;0.20;99.90
21312;DHT22;18076;52.154;10.570;2022-12-18T11:15:49;0.40;99.90
21312;DHT22;18076;52.154;10.570;2022-12-18T11:18:16;0.40;99.90
21312;DHT22;18076;52.154;10.570;2022-12-18T11:20:42;0.40;99.90
21312;DHT22;18076;52.154;10.570;2022-12-18T11:23:12;0.40;99.90
21312;DHT22;18076;52.154;10.570;2022-12-18T11:25:38;0.30;99.90
21312;DHT22;18076;52.154;10.570;2022-12-18T11:28:05;0.20;99.90
21312;DHT22;18076;52.154;10.570;2022-12-18T11:30:49;0.00;99.90
21312;DHT22;18076;52.154;10.570;2022-12-18T11:33:33;-0.20;99.90
21312;DHT22;18076;52.154;10.570;2022-12-18T11:36:00;0.00;99.90
21312;DHT22;18076;52.154;10.570;2022-12-18T11:43:58;0.60;99.90
21312;DHT22;18076;52.154;10.570;2022-12-18T11:46:27;0.50;99.90
21312;DHT22;18076;52.154;10.570;2022-12-18T11:49:15;0.30;99.90
21312;DHT22;18076;52.154;10.570;2022-12-18T11:51:47;0.00;99.90
21312;DHT22;18076;52.154;10.570;2022-12-18T11:54:14;0.00;99.90
21312;DHT22;18076;52.154;10.570;2022-12-18T11:56:46;-0.20;99.90
21312;DHT22;18076;52.154;10.570;2022-12-18T12:09:20;0.60;99.90
21312;DHT22;18076;52.154;10.570;2022-12-18T12:21:40;2.50;99.90
21312;DHT22;18076;52.154;10.570;2022-12-18T12:34:23;3.00;99.90
21312;DHT22;18076;52.154;10.570;2022-12-18T12:39:21;3.10;99.90
21312;DHT22;18076;52.154;10.570;2022-12-18T12:41:48;2.90;99.90
21312;DHT22;18076;52.154;10.570;2022-12-18T12:44:37;2.40;99.90
21312;DHT22;18076;52.154;10.570;2022-12-18T12:47:14;1.90;99.90
21312;DHT22;18076;52.154;10.570;2022-12-18T12:49:40;1.50;99.90
21312;DHT22;18076;52.154;10.570;2022-12-18T12:52:07;0.90;99.90
21312;DHT22;18076;52.154;10.570;2022-12-18T12:54:36;0.70;99.90
21312;DHT22;18076;52.154;10.570;2022-12-18T13:02:38;0.40;99.90
21312;DHT22;18076;52.154;10.570;2022-12-18T13:07:36;0.20;99.90
21312;DHT22;18076;52.154;10.570;2022-12-18T13:12:51;0.00;99.90
21312;DHT22;18076;52.154;10.570;2022-12-18T13:15:30;0.00;99.90
21312;DHT22;18076;52.154;10.570;2022-12-18T13:20:37;-0.10;99.90
21312;DHT22;18076;52.154;10.570;2022-12-18T13:25:48;-0.30;99.90
21312;DHT22;18076;52.154;10.570;2022-12-18T13:28:14;-0.40;99.90
21312;DHT22;18076;52.154;10.570;2022-12-18T13:38:22;-0.60;99.90
21312;DHT22;18076;52.154;10.570;2022-12-18T13:45:49;-1.00;99.90
21312;DHT22;18076;52.154;10.570;2022-12-18T13:48:24;-1.20;99.90
21312;DHT22;18076;52.154;10.570;2022-12-18T13:50:57;-1.50;99.90
21312;DHT22;18076;52.154;10.570;2022-12-18T13:53:27;-1.80;99.90
21312;DHT22;18076;52.154;10.570;2022-12-18T13:55:53;-2.00;99.90
21312;DHT22;18076;52.154;10.570;2022-12-18T13:58:18;-1.90;99.90
21312;DHT22;18076;52.154;10.570;2022-12-18T14:00:44;-1.90;99.90
21312;DHT22;18076;52.154;10.570;2022-12-18T14:03:20;-1.90;99.90
21312;DHT22;18076;52.154;10.570;2022-12-18T14:05:46;-2.00;99.90
21312;DHT22;18076;52.154;10.570;2022-12-18T14:08:17;-2.10;99.90
21312;DHT22;18076;52.154;10.570;2022-12-18T14:10:44;-2.20;99.90
21312;DHT22;18076;52.154;10.570;2022-12-18T14:13:13;-2.30;99.90
21312;DHT22;18076;52.154;10.570;2022-12-18T14:15:41;-2.30;99.90
21312;DHT22;18076;52.154;10.570;2022-12-18T14:20:43;-2.30;99.90
21312;DHT22;18076;52.154;10.570;2022-12-18T14:23:25;-2.40;99.90
21312;DHT22;18076;52.154;10.570;2022-12-18T14:25:52;-2.50;99.90
21312;DHT22;18076;52.154;10.570;2022-12-18T14:28:18;-2.60;99.90
21312;DHT22;18076;52.154;10.570;2022-12-18T14:30:44;-2.70;99.90
21312;DHT22;18076;52.154;10.570;2022-12-18T14:33:21;-2.80;99.90
21312;DHT22;18076;52.154;10.570;2022-12-18T14:41:32;-3.00;99.90
21312;DHT22;18076;52.154;10.570;2022-12-18T14:43:39;-3.00;99.90
21312;DHT22;18076;52.154;10.570;2022-12-18T14:46:06;-3.00;99.90
21312;DHT22;18076;52.154;10.570;2022-12-18T14:48:50;-3.10;99.90
21312;DHT22;18076;52.154;10.570;2022-12-18T14:51:20;-3.10;99.90
21312;DHT22;18076;52.154;10.570;2022-12-18T14:54:14;-3.10;99.90
21312;DHT22;18076;52.154;10.570;2022-12-18T14:56:35;-3.20;99.90
21312;DHT22;18076;52.154;10.570;2022-12-18T15:03:53;-3.30;99.90
21312;DHT22;18076;52.154;10.570;2022-12-18T15:06:37;-3.20;99.90
21312;DHT22;18076;52.154;10.570;2022-12-18T15:09:05;-3.20;99.90
21312;DHT22;18076;52.154;10.570;2022-12-18T15:14:21;-3.20;99.90
21312;DHT22;18076;52.154;10.570;2022-12-18T15:16:51;-3.20;99.90
21312;DHT22;18076;52.154;10.570;2022-12-18T15:19:17;-3.10;99.90
21312;DHT22;18076;52.154;10.570;2022-12-18T15:21:42;-3.10;99.90
21312;DHT22;18076;52.154;10.570;2022-12-18T15:24:14;-3.10;99.90
21312;DHT22;18076;52.154;10.570;2022-12-18T15:26:41;-3.10;99.90
21312;DHT22;18076;52.154;10.570;2022-12-18T15:29:15;-3.00;99.90
21312;DHT22;18076;52.154;10.570;2022-12-18T15:31:43;-3.10;99.90
21312;DHT22;18076;52.154;10.570;2022-12-18T15:34:19;-3.00;99.90
21312;DHT22;18076;52.154;10.570;2022-12-18T15:36:46;-3.00;99.90
21312;DHT22;18076;52.154;10.570;2022-12-18T15:39:12;-3.00;99.90
21312;DHT22;18076;52.154;10.570;2022-12-18T15:41:38;-2.90;99.90
21312;DHT22;18076;52.154;10.570;2022-12-18T15:44:19;-2.80;99.90
21312;DHT22;18076;52.154;10.570;2022-12-18T15:46:46;-2.80;99.90
21312;DHT22;18076;52.154;10.570;2022-12-18T15:49:12;-2.90;99.90
21312;DHT22;18076;52.154;10.570;2022-12-18T15:51:37;-2.90;99.90
21312;DHT22;18076;52.154;10.570;2022-12-18T15:54:04;-2.90;99.90
21312;DHT22;18076;52.154;10.570;2022-12-18T15:56:31;-2.90;99.90
21312;DHT22;18076;52.154;10.570;2022-12-18T15:59:16;-2.90;99.90
21312;DHT22;18076;52.154;10.570;2022-12-18T16:01:43;-3.10;99.90
21312;DHT22;18076;52.154;10.570;2022-12-18T16:04:13;-3.10;99.90
21312;DHT22;18076;52.154;10.570;2022-12-18T16:06:39;-3.20;99.90
21312;DHT22;18076;52.154;10.570;2022-12-18T16:09:05;-3.10;99.90
21312;DHT22;18076;52.154;10.570;2022-12-18T16:11:31;-3.20;99.90
21312;DHT22;18076;52.154;10.570;2022-12-18T16:14:04;-3.10;99.90
21312;DHT22;18076;52.154;10.570;2022-12-18T16:16:30;-3.20;99.90
21312;DHT22;18076;52.154;10.570;2022-12-18T16:18:55;-3.20;99.90
21312;DHT22;18076;52.154;10.570;2022-12-18T16:21:21;-3.30;99.90
21312;DHT22;18076;52.154;10.570;2022-12-18T16:23:46;-3.30;99.90
21312;DHT22;18076;52.154;10.570;2022-12-18T16:26:12;-3.40;99.90
21312;DHT22;18076;52.154;10.570;2022-12-18T16:28:37;-3.40;99.90
21312;DHT22;18076;52.154;10.570;2022-12-18T16:31:03;-3.50;99.90
21312;DHT22;18076;52.154;10.570;2022-12-18T16:33:28;-3.50;99.90
21312;DHT22;18076;52.154;10.570;2022-12-18T16:35:54;-3.50;99.90
21312;DHT22;18076;52.154;10.570;2022-12-18T16:38:19;-3.40;99.90
21312;DHT22;18076;52.154;10.570;2022-12-18T16:40:45;-3.40;99.90
21312;DHT22;18076;52.154;10.570;2022-12-18T16:43:31;-3.40;99.90
21312;DHT22;18076;52.154;10.570;2022-12-18T16:45:58;-3.40;99.90
21312;DHT22;18076;52.154;10.570;2022-12-18T16:48:23;-3.40;99.90
21312;DHT22;18076;52.154;10.570;2022-12-18T16:50:49;-3.30;99.90
21312;DHT22;18076;52.154;10.570;2022-12-18T16:53:14;-3.30;99.90
21312;DHT22;18076;52.154;10.570;2022-12-18T16:55:40;-3.30;99.90
21312;DHT22;18076;52.154;10.570;2022-12-18T16:58:05;-3.30;99.90
21312;DHT22;18076;52.154;10.570;2022-12-18T17:00:31;-3.30;99.90
21312;DHT22;18076;52.154;10.570;2022-12-18T17:02:56;-3.30;99.90
21312;DHT22;18076;52.154;10.570;2022-12-18T17:05:22;-3.30;99.90
21312;DHT22;18076;52.154;10.570;2022-12-18T17:07:47;-3.30;99.90
21312;DHT22;18076;52.154;10.570;2022-12-18T17:10:13;-3.30;99.90
21312;DHT22;18076;52.154;10.570;2022-12-18T17:12:38;-3.30;99.90
21312;DHT22;18076;52.154;10.570;2022-12-18T17:15:04;-3.20;99.90
21312;DHT22;18076;52.154;10.570;2022-12-18T17:17:29;-3.20;99.90
21312;DHT22;18076;52.154;10.570;2022-12-18T17:19:55;-3.20;99.90
21312;DHT22;18076;52.154;10.570;2022-12-18T17:22:21;-3.20;99.90